Time,TemperatureF,DewpointF,PressureIn,WindDirection,WindDirectionDegrees,WindSpeedMPH,WindSpeedGustMPH,Humidity,HourlyPrecipIn,Conditions,Clouds,dailyrainin,SoftwareType,DateUTC
2013-02-07 00:02:00,58.0,56.0,29.86,SW,219,7.0,10.0,94,0.00,,,0.00,,2013-02-07 06:02:00,
2013-02-07 00:11:00,58.0,56.0,29.86,SW,219,7.0,10.0,94,0.00,,,0.00,,2013-02-07 06:11:00,
2013-02-07 00:22:00,58.0,56.0,29.86,SSW,212,7.0,9.0,94,0.00,,,0.00,,2013-02-07 06:22:00,
2013-02-07 00:31:00,58.0,57.0,29.86,SW,222,6.0,6.0,95,0.00,,,0.00,,2013-02-07 06:31:00,
2013-02-07 00:43:00,58.0,57.0,29.86,SW,222,6.0,6.0,95,0.00,,,0.00,,2013-02-07 06:43:00,
2013-02-07 00:52:00,58.0,57.0,29.86,South,176,6.0,7.0,95,0.00,,,0.00,,2013-02-07 06:52:00,
2013-02-07 01:01:00,57.0,56.0,29.87,SW,224,4.0,4.0,96,0.00,,,0.00,,2013-02-07 07:01:00,
2013-02-07 01:11:00,56.0,55.0,29.87,SW,232,6.0,6.0,97,0.00,,,0.00,,2013-02-07 07:11:00,
2013-02-07 01:22:00,56.0,55.0,29.87,SW,232,6.0,6.0,97,0.00,,,0.00,,2013-02-07 07:22:00,
2013-02-07 01:32:00,57.0,56.0,29.87,South,190,4.0,4.0,97,0.00,,,0.00,,2013-02-07 07:32:00,
2013-02-07 01:41:00,57.0,56.0,29.87,South,190,4.0,4.0,97,0.00,,,0.00,,2013-02-07 07:41:00,
2013-02-07 01:52:00,56.0,55.0,29.87,South,184,4.0,5.0,97,0.00,,,0.00,,2013-02-07 07:52:00,
2013-02-07 02:01:00,57.0,56.0,29.87,WSW,246,7.0,7.0,98,0.00,,,0.00,,2013-02-07 08:01:00,
2013-02-07 02:11:00,57.0,56.0,29.87,WSW,246,7.0,7.0,98,0.00,,,0.00,,2013-02-07 08:11:00,
2013-02-07 02:21:00,57.0,57.0,29.88,SW,214,9.0,11.0,99,0.00,,,0.00,,2013-02-07 08:21:00,
2013-02-07 02:32:00,57.0,57.0,29.88,WSW,256,12.0,12.0,100,0.00,,,0.00,,2013-02-07 08:32:00,
2013-02-07 02:42:00,57.0,57.0,29.88,WSW,256,12.0,12.0,100,0.00,,,0.00,,2013-02-07 08:42:00,
2013-02-07 02:52:00,58.0,58.0,29.88,WSW,239,9.0,9.0,100,0.00,,,0.00,,2013-02-07 08:52:00,
2013-02-07 03:01:00,58.0,58.0,29.88,SW,221,10.0,10.0,100,0.00,,,0.00,,2013-02-07 09:01:00,
2013-02-07 03:11:00,57.0,57.0,29.88,SW,226,8.0,8.0,100,0.00,,,0.00,,2013-02-07 09:11:00,
2013-02-07 03:21:00,57.0,57.0,29.88,SW,226,8.0,8.0,100,0.00,,,0.00,,2013-02-07 09:21:00,
2013-02-07 03:31:00,56.0,56.0,29.88,WSW,249,7.0,7.0,100,0.00,,,0.00,,2013-02-07 09:31:00,
2013-02-07 03:41:00,56.0,56.0,29.88,WSW,249,7.0,7.0,100,0.00,,,0.00,,2013-02-07 09:41:00,
2013-02-07 03:52:00,55.0,55.0,29.88,WSW,252,6.0,6.0,100,0.00,,,0.00,,2013-02-07 09:52:00,
2013-02-07 04:01:00,54.0,54.0,29.88,WSW,257,5.0,6.0,100,0.00,,,0.00,,2013-02-07 10:01:00,
2013-02-07 04:11:00,54.0,54.0,29.88,WSW,257,5.0,6.0,100,0.00,,,0.00,,2013-02-07 10:11:00,
2013-02-07 04:22:00,54.0,54.0,29.89,SW,232,3.0,3.0,100,0.00,,,0.00,,2013-02-07 10:22:00,
2013-02-07 04:32:00,53.0,53.0,29.89,SW,224,4.0,4.0,100,0.00,,,0.00,,2013-02-07 10:32:00,
2013-02-07 04:42:00,53.0,53.0,29.89,SW,224,4.0,4.0,100,0.00,,,0.00,,2013-02-07 10:42:00,
2013-02-07 04:52:00,51.0,51.0,29.89,SW,214,3.0,3.0,100,0.00,,,0.00,,2013-02-07 10:52:00,
2013-02-07 05:01:00,50.0,50.0,29.89,SW,224,3.0,3.0,100,0.00,,,0.00,,2013-02-07 11:01:00,
2013-02-07 05:22:00,50.0,50.0,29.90,SW,228,4.0,4.0,100,0.00,,,0.00,,2013-02-07 11:22:00,
2013-02-07 05:32:00,51.0,51.0,29.89,SW,224,5.0,6.0,100,0.00,,,0.00,,2013-02-07 11:32:00,
2013-02-07 05:44:00,51.0,51.0,29.89,SW,224,5.0,6.0,100,0.00,,,0.00,,2013-02-07 11:44:00,
2013-02-07 05:52:00,52.0,52.0,29.90,SSE,156,6.0,6.0,100,0.00,,,0.00,,2013-02-07 11:52:00,
2013-02-07 06:02:00,52.0,52.0,29.90,SSW,208,4.0,4.0,100,0.00,,,0.00,,2013-02-07 12:02:00,
2013-02-07 06:11:00,52.0,52.0,29.90,SSW,208,4.0,4.0,100,0.00,,,0.00,,2013-02-07 12:11:00,
2013-02-07 06:22:00,51.0,51.0,29.90,SSW,211,3.0,3.0,100,0.00,,,0.00,,2013-02-07 12:22:00,
2013-02-07 06:32:00,50.0,50.0,29.90,South,190,3.0,3.0,100,0.00,,,0.00,,2013-02-07 12:32:00,
2013-02-07 06:42:00,50.0,50.0,29.90,South,190,3.0,3.0,100,0.00,,,0.00,,2013-02-07 12:42:00,
2013-02-07 06:53:00,50.0,50.0,29.90,South,180,4.0,4.0,100,0.00,,,0.00,,2013-02-07 12:53:00,
2013-02-07 07:02:00,49.0,49.0,29.90,SW,225,3.0,3.0,100,0.00,,,0.00,,2013-02-07 13:02:00,
2013-02-07 07:12:00,49.0,49.0,29.90,SW,225,3.0,3.0,100,0.00,,,0.00,,2013-02-07 13:12:00,
2013-02-07 07:22:00,48.0,48.0,29.90,SSW,211,4.0,4.0,100,0.00,,,0.00,,2013-02-07 13:22:00,
2013-02-07 07:32:00,48.0,48.0,29.91,SW,215,3.0,3.0,100,0.00,,,0.00,,2013-02-07 13:32:00,
2013-02-07 07:52:00,47.0,47.0,29.91,WSW,246,3.0,4.0,100,0.00,,,0.00,,2013-02-07 13:52:00,
2013-02-07 08:01:00,46.0,46.0,29.92,WNW,288,2.0,2.0,100,0.00,,,0.00,,2013-02-07 14:01:00,
2013-02-07 08:21:00,47.0,47.0,29.93,West,276,0.0,0.0,100,0.00,,,0.00,,2013-02-07 14:21:00,
2013-02-07 08:32:00,48.0,48.0,29.93,West,276,0.0,0.0,100,0.00,,,0.00,,2013-02-07 14:32:00,
2013-02-07 08:52:00,52.0,52.0,29.94,WNW,284,4.0,4.0,100,0.00,,,0.00,,2013-02-07 14:52:00,
2013-02-07 09:01:00,52.0,52.0,29.94,WNW,284,4.0,4.0,100,0.00,,,0.00,,2013-02-07 15:01:00,
2013-02-07 09:11:00,52.0,52.0,29.94,WNW,284,4.0,4.0,100,0.00,,,0.00,,2013-02-07 15:11:00,
2013-02-07 09:22:00,52.0,52.0,29.94,WNW,284,4.0,4.0,100,0.00,,,0.00,,2013-02-07 15:22:00,
2013-02-07 09:32:00,59.0,59.0,29.96,West,262,6.0,8.0,100,0.00,,,0.00,,2013-02-07 15:32:00,
2013-02-07 09:42:00,59.0,59.0,29.96,West,262,6.0,8.0,100,0.00,,,0.00,,2013-02-07 15:42:00,
2013-02-07 09:52:00,59.0,59.0,29.96,West,263,7.0,8.0,100,0.00,,,0.00,,2013-02-07 15:52:00,
2013-02-07 10:01:00,61.0,61.0,29.96,WSW,242,13.0,13.0,100,0.00,,,0.00,,2013-02-07 16:01:00,
2013-02-07 10:11:00,61.0,61.0,29.96,WSW,242,13.0,13.0,100,0.00,,,0.00,,2013-02-07 16:11:00,
2013-02-07 10:21:00,61.0,61.0,29.97,WSW,248,14.0,14.0,100,0.00,,,0.00,,2013-02-07 16:21:00,
2013-02-07 10:32:00,61.0,61.0,29.96,West,276,11.0,14.0,100,0.00,,,0.00,,2013-02-07 16:32:00,
2013-02-07 10:41:00,61.0,61.0,29.96,West,276,11.0,14.0,100,0.00,,,0.00,,2013-02-07 16:41:00,
2013-02-07 10:52:00,60.0,60.0,29.97,WNW,288,10.0,13.0,100,0.00,,,0.00,,2013-02-07 16:52:00,
2013-02-07 11:01:00,60.0,60.0,29.97,WNW,291,11.0,11.0,100,0.00,,,0.00,,2013-02-07 17:01:00,
2013-02-07 11:11:00,59.0,58.0,29.97,West,273,9.0,13.0,98,0.00,,,0.00,,2013-02-07 17:11:00,
2013-02-07 11:21:00,59.0,58.0,29.97,West,273,9.0,13.0,98,0.00,,,0.00,,2013-02-07 17:21:00,
2013-02-07 11:31:00,60.0,59.0,29.97,West,264,8.0,9.0,98,0.00,,,0.00,,2013-02-07 17:31:00,
2013-02-07 11:52:00,60.0,59.0,29.97,WNW,293,9.0,9.0,97,0.00,,,0.00,,2013-02-07 17:52:00,
2013-02-07 12:01:00,62.0,62.0,29.97,NW,308,7.0,14.0,99,0.00,,,0.00,,2013-02-07 18:01:00,
2013-02-07 12:23:00,63.0,62.0,29.97,WNW,297,11.0,11.0,96,0.00,,,0.00,,2013-02-07 18:23:00,
2013-02-07 12:31:00,66.0,64.0,29.97,NW,321,10.0,10.0,92,0.00,,,0.00,,2013-02-07 18:31:00,
2013-02-07 12:52:00,68.0,66.0,29.97,NW,316,11.0,11.0,92,0.00,,,0.00,,2013-02-07 18:52:00,
2013-02-07 13:01:00,69.0,67.0,29.97,WNW,285,8.0,8.0,93,0.00,,,0.00,,2013-02-07 19:01:00,
2013-02-07 13:22:00,69.0,67.0,29.96,West,266,9.0,9.0,92,0.00,,,0.00,,2013-02-07 19:22:00,
2013-02-07 13:31:00,69.0,65.0,29.95,NW,307,9.0,9.0,88,0.00,,,0.00,,2013-02-07 19:31:00,
2013-02-07 13:52:00,69.0,66.0,29.95,West,262,7.0,8.0,90,0.00,,,0.00,,2013-02-07 19:52:00,
2013-02-07 14:01:00,70.0,66.0,29.95,WNW,298,11.0,15.0,87,0.00,,,0.00,,2013-02-07 20:01:00,
2013-02-07 14:22:00,69.0,63.0,29.94,NW,312,11.0,11.0,81,0.00,,,0.00,,2013-02-07 20:22:00,
2013-02-07 14:31:00,70.0,64.0,29.94,NNW,330,16.0,16.0,81,0.00,,,0.00,,2013-02-07 20:31:00,
2013-02-07 14:52:00,70.0,62.0,29.94,NW,304,10.0,11.0,76,0.00,,,0.00,,2013-02-07 20:52:00,
2013-02-07 15:01:00,71.0,63.0,29.94,WNW,302,8.0,9.0,75,0.00,,,0.00,,2013-02-07 21:01:00,
2013-02-07 15:21:00,72.0,47.0,29.94,NW,325,9.0,9.0,41,0.00,,,0.00,,2013-02-07 21:21:00,
2013-02-07 15:31:00,72.0,45.0,29.94,NNW,335,11.0,11.0,38,0.00,,,0.00,,2013-02-07 21:31:00,
2013-02-07 15:52:00,72.0,45.0,29.94,WNW,291,8.0,16.0,38,0.00,,,0.00,,2013-02-07 21:52:00,
2013-02-07 16:02:00,72.0,45.0,29.94,NW,318,15.0,15.0,38,0.00,,,0.00,,2013-02-07 22:02:00,
2013-02-07 16:21:00,72.0,45.0,29.94,NNW,336,12.0,12.0,38,0.00,,,0.00,,2013-02-07 22:21:00,
2013-02-07 16:31:00,71.0,44.0,29.94,NW,319,14.0,14.0,38,0.00,,,0.00,,2013-02-07 22:31:00,
2013-02-07 16:52:00,71.0,44.0,29.95,NNW,347,14.0,14.0,38,0.00,,,0.00,,2013-02-07 22:52:00,
2013-02-07 17:01:00,71.0,44.0,29.95,NW,319,12.0,12.0,38,0.00,,,0.00,,2013-02-07 23:01:00,
2013-02-07 17:21:00,70.0,45.0,29.96,NNW,340,17.0,17.0,40,0.00,,,0.00,,2013-02-07 23:21:00,
2013-02-07 17:32:00,69.0,45.0,29.96,NNW,339,15.0,17.0,42,0.00,,,0.00,,2013-02-07 23:32:00,
2013-02-07 17:52:00,68.0,45.0,29.97,NNW,339,14.0,16.0,44,0.00,,,0.00,,2013-02-07 23:52:00,
2013-02-07 18:01:00,67.0,46.0,29.98,North,354,13.0,14.0,47,0.00,,,0.00,,2013-02-08 00:01:00,
2013-02-07 18:21:00,66.0,47.0,30.00,NW,326,12.0,13.0,51,0.00,,,0.00,,2013-02-08 00:21:00,
2013-02-07 18:31:00,64.0,47.0,30.01,North,349,9.0,9.0,53,0.00,,,0.00,,2013-02-08 00:31:00,
2013-02-07 18:52:00,63.0,48.0,30.02,NNE,21,13.0,14.0,57,0.00,,,0.00,,2013-02-08 00:52:00,
2013-02-07 19:01:00,62.0,48.0,30.03,NNW,338,13.0,15.0,60,0.00,,,0.00,,2013-02-08 01:01:00,
2013-02-07 19:21:00,61.0,48.0,30.04,NNW,345,12.0,12.0,63,0.00,,,0.00,,2013-02-08 01:21:00,
2013-02-07 19:31:00,60.0,48.0,30.06,North,6,11.0,13.0,65,0.00,,,0.00,,2013-02-08 01:31:00,
2013-02-07 19:52:00,59.0,48.0,30.07,North,4,12.0,14.0,66,0.00,,,0.00,,2013-02-08 01:52:00,
2013-02-07 20:01:00,58.0,47.0,30.08,NW,326,10.0,10.0,68,0.00,,,0.00,,2013-02-08 02:01:00,
2013-02-07 20:11:00,58.0,47.0,30.08,NW,326,10.0,10.0,68,0.00,,,0.00,,2013-02-08 02:11:00,
2013-02-07 20:21:00,58.0,48.0,30.09,North,7,12.0,12.0,69,0.00,,,0.00,,2013-02-08 02:21:00,
2013-02-07 20:32:00,57.0,47.0,30.10,North,7,9.0,9.0,70,0.00,,,0.00,,2013-02-08 02:32:00,
2013-02-07 20:42:00,57.0,47.0,30.10,North,7,9.0,9.0,70,0.00,,,0.00,,2013-02-08 02:42:00,
2013-02-07 20:52:00,56.0,47.0,30.11,North,359,8.0,8.0,72,0.00,,,0.00,,2013-02-08 02:52:00,
2013-02-07 21:01:00,55.0,47.0,30.11,North,359,8.0,8.0,73,0.00,,,0.00,,2013-02-08 03:01:00,
2013-02-07 21:12:00,55.0,47.0,30.11,North,359,8.0,8.0,73,0.00,,,0.00,,2013-02-08 03:12:00,
2013-02-07 21:22:00,55.0,47.0,30.12,North,7,7.0,7.0,74,0.00,,,0.00,,2013-02-08 03:22:00,
2013-02-07 21:32:00,52.0,45.0,30.13,NNW,339,7.0,7.0,78,0.00,,,0.00,,2013-02-08 03:32:00,
2013-02-07 21:41:00,52.0,45.0,30.13,NNW,339,7.0,7.0,78,0.00,,,0.00,,2013-02-08 03:41:00,
2013-02-07 21:52:00,53.0,45.0,30.14,NNW,338,9.0,9.0,75,0.00,,,0.00,,2013-02-08 03:52:00,
2013-02-07 22:01:00,52.0,45.0,30.15,NNE,31,5.0,5.0,76,0.00,,,0.00,,2013-02-08 04:01:00,
2013-02-07 22:11:00,52.0,45.0,30.15,NNE,31,5.0,5.0,76,0.00,,,0.00,,2013-02-08 04:11:00,
2013-02-07 22:21:00,51.0,44.0,30.16,North,6,3.0,4.0,77,0.00,,,0.00,,2013-02-08 04:21:00,
2013-02-07 22:32:00,50.0,44.0,30.16,ENE,62,1.0,1.0,79,0.00,,,0.00,,2013-02-08 04:32:00,
2013-02-07 22:41:00,50.0,44.0,30.16,ENE,62,1.0,1.0,79,0.00,,,0.00,,2013-02-08 04:41:00,
2013-02-07 22:52:00,50.0,44.0,30.17,NNE,15,4.0,4.0,80,0.00,,,0.00,,2013-02-08 04:52:00,
2013-02-07 23:02:00,49.0,43.0,30.17,NNE,13,3.0,3.0,80,0.00,,,0.00,,2013-02-08 05:02:00,
2013-02-07 23:11:00,49.0,43.0,30.17,NNE,13,3.0,3.0,80,0.00,,,0.00,,2013-02-08 05:11:00,
2013-02-07 23:22:00,48.0,42.0,30.17,NNE,17,4.0,5.0,81,0.00,,,0.00,,2013-02-08 05:22:00,
2013-02-07 23:31:00,48.0,43.0,30.18,North,354,3.0,3.0,82,0.00,,,0.00,,2013-02-08 05:31:00,
2013-02-07 23:42:00,48.0,43.0,30.18,North,354,3.0,3.0,82,0.00,,,0.00,,2013-02-08 05:42:00,
2013-02-07 23:52:00,47.0,42.0,30.18,NNE,13,0.0,0.0,84,0.00,,,0.00,,2013-02-08 05:52:00,